createdAt,value
2024-01-27T00:00:41.461Z,689.00
2024-01-27T00:01:41.342Z,687.00
2024-01-27T00:02:41.363Z,685.00
2024-01-27T00:03:41.414Z,686.00
2024-01-27T00:04:41.463Z,688.00
2024-01-27T00:05:41.480Z,688.00
2024-01-27T00:06:41.507Z,690.00
2024-01-27T00:07:41.465Z,691.00
2024-01-27T00:08:41.467Z,690.00
2024-01-27T00:09:41.483Z,689.00
2024-01-27T00:10:41.490Z,689.00
2024-01-27T00:11:41.499Z,687.00
2024-01-27T00:12:41.487Z,686.00
2024-01-27T00:13:41.492Z,683.00
2024-01-27T00:14:41.515Z,679.00
2024-01-27T00:15:41.546Z,676.00
2024-01-27T00:16:41.512Z,675.00
2024-01-27T00:17:41.550Z,676.00
2024-01-27T00:18:41.605Z,675.00
2024-01-27T00:19:42.006Z,674.00
2024-01-27T00:20:41.518Z,674.00
2024-01-27T00:21:41.526Z,674.00
2024-01-27T00:22:41.540Z,672.00
2024-01-27T00:23:41.549Z,672.00
2024-01-27T00:24:41.558Z,672.00
2024-01-27T00:25:41.574Z,671.00
2024-01-27T00:26:41.610Z,673.00
2024-01-27T00:27:41.645Z,674.00
2024-01-27T00:28:41.551Z,673.00
2024-01-27T00:29:41.592Z,674.00
2024-01-27T00:30:41.564Z,675.00
2024-01-27T00:31:41.562Z,676.00
2024-01-27T00:32:41.608Z,675.00
2024-01-27T00:33:41.673Z,675.00
2024-01-27T00:34:41.619Z,677.00
2024-01-27T00:35:41.578Z,675.00
2024-01-27T00:36:41.587Z,677.00
2024-01-27T00:37:41.597Z,676.00
2024-01-27T00:38:41.603Z,673.00
2024-01-27T00:39:41.625Z,672.00
2024-01-27T00:40:41.655Z,672.00
2024-01-27T00:41:41.696Z,674.00
2024-01-27T00:42:41.724Z,676.00
2024-01-27T00:43:41.764Z,670.00
2024-01-27T00:44:41.801Z,667.00
2024-01-27T00:45:41.829Z,666.00
2024-01-27T00:46:41.859Z,663.00
2024-01-27T00:47:41.984Z,665.00
2024-01-27T00:48:42.079Z,662.00
2024-01-27T00:49:42.103Z,660.00
2024-01-27T00:50:42.081Z,659.00
2024-01-27T00:51:42.074Z,659.00
2024-01-27T00:52:42.083Z,658.00
2024-01-27T00:53:42.132Z,659.00
2024-01-27T00:54:42.236Z,659.00
2024-01-27T00:55:42.225Z,662.00
2024-01-27T00:56:42.268Z,660.00
2024-01-27T00:57:42.293Z,658.00
2024-01-27T00:58:42.353Z,654.00
2024-01-27T00:59:42.378Z,657.00
2024-01-27T01:00:42.549Z,660.00
2024-01-27T01:01:42.550Z,661.00
2024-01-27T01:02:42.531Z,659.00
2024-01-27T01:03:42.719Z,658.00
2024-01-27T01:04:42.605Z,659.00
2024-01-27T01:05:42.652Z,657.00
2024-01-27T01:06:42.687Z,654.00
2024-01-27T01:07:42.700Z,655.00
2024-01-27T01:08:42.728Z,657.00
2024-01-27T01:09:42.771Z,659.00
2024-01-27T01:10:42.798Z,660.00
2024-01-27T01:11:42.835Z,664.00
2024-01-27T01:12:42.862Z,664.00
2024-01-27T01:13:42.906Z,663.00
2024-01-27T01:14:42.941Z,660.00
2024-01-27T01:15:42.980Z,659.00
2024-01-27T01:16:43.037Z,659.00
2024-01-27T01:17:43.077Z,658.00
2024-01-27T01:18:43.192Z,656.00
2024-01-27T01:19:43.139Z,657.00
2024-01-27T01:20:43.151Z,659.00
2024-01-27T01:21:43.196Z,660.00
2024-01-27T01:22:43.238Z,659.00
2024-01-27T01:23:43.272Z,659.00
2024-01-27T01:24:43.325Z,660.00
2024-01-27T01:25:43.371Z,659.00
2024-01-27T01:26:43.378Z,659.00
2024-01-27T01:27:43.425Z,659.00
2024-01-27T01:28:43.501Z,655.00
2024-01-27T01:29:43.518Z,653.00
2024-01-27T01:30:43.580Z,654.00
2024-01-27T01:31:43.629Z,652.00
2024-01-27T01:32:43.686Z,647.00
2024-01-27T01:33:43.787Z,647.00
2024-01-27T01:34:43.776Z,644.00
2024-01-27T01:35:43.713Z,644.00
2024-01-27T01:36:43.745Z,645.00
2024-01-27T01:37:43.761Z,644.00
2024-01-27T01:38:43.835Z,646.00
2024-01-27T01:39:43.787Z,642.00
2024-01-27T01:40:43.799Z,641.00
2024-01-27T01:41:43.795Z,640.00
2024-01-27T01:42:43.811Z,641.00
2024-01-27T01:43:43.800Z,641.00
2024-01-27T01:44:43.823Z,642.00
2024-01-27T01:45:43.809Z,643.00
2024-01-27T01:46:43.829Z,648.00
2024-01-27T01:47:43.891Z,646.00
2024-01-27T01:48:43.986Z,645.00
2024-01-27T01:49:43.944Z,644.00
2024-01-27T01:50:43.848Z,644.00
2024-01-27T01:51:43.846Z,648.00
2024-01-27T01:52:43.853Z,644.00
2024-01-27T01:53:43.852Z,642.00
2024-01-27T01:54:43.852Z,644.00
2024-01-27T01:55:43.862Z,644.00
2024-01-27T01:56:43.886Z,642.00
2024-01-27T01:57:43.888Z,643.00
2024-01-27T01:58:43.882Z,645.00
2024-01-27T01:59:44.035Z,643.00
2024-01-27T02:00:43.962Z,642.00
2024-01-27T02:01:46.171Z,639.00
2024-01-27T02:02:43.897Z,638.00
2024-01-27T02:03:43.895Z,638.00
2024-01-27T02:04:43.976Z,639.00
2024-01-27T02:05:43.957Z,638.00
2024-01-27T02:06:44.018Z,639.00
2024-01-27T02:07:43.941Z,640.00
2024-01-27T02:08:43.949Z,642.00
2024-01-27T02:09:43.944Z,641.00
2024-01-27T02:10:43.955Z,641.00
2024-01-27T02:11:43.967Z,640.00
2024-01-27T02:12:44.002Z,640.00
2024-01-27T02:13:43.977Z,641.00
2024-01-27T02:14:43.999Z,640.00
2024-01-27T02:15:43.996Z,637.00
2024-01-27T02:16:43.995Z,631.00
2024-01-27T02:17:44.112Z,629.00
2024-01-27T02:18:44.068Z,630.00
2024-01-27T02:19:44.210Z,630.00
2024-01-27T02:20:44.006Z,633.00
2024-01-27T02:21:44.031Z,632.00
2024-01-27T02:22:44.040Z,632.00
2024-01-27T02:23:44.038Z,634.00
2024-01-27T02:24:44.062Z,634.00
2024-01-27T02:25:44.030Z,632.00
2024-01-27T02:26:44.043Z,632.00
2024-01-27T02:27:44.031Z,632.00
2024-01-27T02:28:44.081Z,632.00
2024-01-27T02:29:44.098Z,633.00
2024-01-27T02:30:44.171Z,633.00
2024-01-27T02:31:44.161Z,632.00
2024-01-27T02:32:44.226Z,630.00
2024-01-27T02:33:44.351Z,630.00
2024-01-27T02:34:44.298Z,629.00
2024-01-27T02:35:44.268Z,632.00
2024-01-27T02:36:44.319Z,632.00
2024-01-27T02:37:44.339Z,632.00
2024-01-27T02:38:44.353Z,630.00
2024-01-27T02:39:44.397Z,630.00
2024-01-27T02:40:44.407Z,625.00
2024-01-27T02:41:44.442Z,623.00
2024-01-27T02:42:44.478Z,623.00
2024-01-27T02:43:44.498Z,625.00
2024-01-27T02:44:44.540Z,624.00
2024-01-27T02:45:44.587Z,624.00
2024-01-27T02:46:44.595Z,620.00
2024-01-27T02:47:44.735Z,618.00
2024-01-27T02:48:44.810Z,620.00
2024-01-27T02:49:44.888Z,621.00
2024-01-27T02:50:44.712Z,622.00
2024-01-27T02:51:44.734Z,622.00
2024-01-27T02:52:44.791Z,618.00
2024-01-27T02:53:44.798Z,619.00
2024-01-27T02:54:44.818Z,617.00
2024-01-27T02:55:44.831Z,615.00
2024-01-27T02:56:44.869Z,616.00
2024-01-27T02:57:44.895Z,616.00
2024-01-27T02:58:44.921Z,617.00
2024-01-27T02:59:44.918Z,619.00
2024-01-27T03:00:45.038Z,620.00
2024-01-27T03:01:44.933Z,618.00
2024-01-27T03:02:44.930Z,617.00
2024-01-27T03:03:45.022Z,615.00
2024-01-27T03:04:45.018Z,614.00
2024-01-27T03:05:45.063Z,616.00
2024-01-27T03:06:45.083Z,615.00
2024-01-27T03:07:44.962Z,613.00
2024-01-27T03:08:44.973Z,614.00
2024-01-27T03:09:44.987Z,615.00
2024-01-27T03:10:45.002Z,617.00
2024-01-27T03:11:44.979Z,612.00
2024-01-27T03:12:45.032Z,613.00
2024-01-27T03:13:44.992Z,613.00
2024-01-27T03:14:45.028Z,611.00
2024-01-27T03:15:45.031Z,610.00
2024-01-27T03:16:45.033Z,612.00
2024-01-27T03:17:45.062Z,612.00
2024-01-27T03:18:45.114Z,613.00
2024-01-27T03:19:47.145Z,614.00
2024-01-27T03:20:45.034Z,615.00
2024-01-27T03:21:45.064Z,615.00
2024-01-27T03:22:45.047Z,616.00
2024-01-27T03:23:45.057Z,617.00
2024-01-27T03:24:45.064Z,617.00
2024-01-27T03:25:45.093Z,615.00
2024-01-27T03:26:45.078Z,616.00
2024-01-27T03:27:45.799Z,615.00
2024-01-27T03:28:45.088Z,614.00
2024-01-27T03:29:45.086Z,612.00
2024-01-27T03:30:45.097Z,612.00
2024-01-27T03:31:45.116Z,611.00
2024-01-27T03:32:45.242Z,611.00
2024-01-27T03:33:45.195Z,612.00
2024-01-27T03:34:45.278Z,616.00
2024-01-27T03:35:45.112Z,616.00
2024-01-27T03:36:45.129Z,613.00
2024-01-27T03:37:45.124Z,612.00
2024-01-27T03:38:45.137Z,612.00
2024-01-27T03:39:45.149Z,612.00
2024-01-27T03:40:45.151Z,614.00
2024-01-27T03:41:45.140Z,616.00
2024-01-27T03:42:45.153Z,615.00
2024-01-27T03:43:45.247Z,612.00
2024-01-27T03:44:45.172Z,612.00
2024-01-27T03:45:45.196Z,611.00
2024-01-27T03:46:45.199Z,609.00
2024-01-27T03:47:46.778Z,608.00
2024-01-27T03:48:45.339Z,608.00
2024-01-27T03:49:45.321Z,608.00
2024-01-27T03:50:45.202Z,606.00
2024-01-27T03:51:45.219Z,607.00
2024-01-27T03:52:45.235Z,605.00
2024-01-27T03:53:45.258Z,606.00
2024-01-27T03:54:45.258Z,606.00
2024-01-27T03:55:45.237Z,607.00
2024-01-27T03:56:45.259Z,610.00
2024-01-27T03:57:45.280Z,610.00
2024-01-27T03:58:45.272Z,612.00
2024-01-27T03:59:45.287Z,612.00
2024-01-27T04:00:46.178Z,612.00
2024-01-27T04:01:45.302Z,611.00
2024-01-27T04:02:45.302Z,609.00
2024-01-27T04:03:45.344Z,609.00
2024-01-27T04:04:45.421Z,610.00
2024-01-27T04:05:45.378Z,611.00
2024-01-27T04:06:45.495Z,610.00
2024-01-27T04:07:45.368Z,613.00
2024-01-27T04:08:45.385Z,613.00
2024-01-27T04:09:45.443Z,611.00
2024-01-27T04:10:45.406Z,611.00
2024-01-27T04:11:45.411Z,612.00
2024-01-27T04:12:45.408Z,611.00
2024-01-27T04:13:45.420Z,613.00
2024-01-27T04:14:45.429Z,614.00
2024-01-27T04:15:45.443Z,613.00
2024-01-27T04:16:45.431Z,612.00
2024-01-27T04:17:45.458Z,608.00
2024-01-27T04:18:45.628Z,602.00
2024-01-27T04:19:45.584Z,599.00
2024-01-27T04:20:45.465Z,602.00
2024-01-27T04:21:45.458Z,601.00
2024-01-27T04:22:45.462Z,604.00
2024-01-27T04:23:45.454Z,603.00
2024-01-27T04:24:45.490Z,602.00
2024-01-27T04:25:45.481Z,602.00
2024-01-27T04:26:52.713Z,601.00
2024-01-27T04:27:52.713Z,600.00
2024-01-27T04:28:52.768Z,600.00
2024-01-27T04:29:52.785Z,598.00
2024-01-27T04:30:52.787Z,598.00
2024-01-27T04:32:00.006Z,600.00
2024-01-27T04:33:00.108Z,600.00
2024-01-27T04:34:00.243Z,603.00
2024-01-27T04:34:59.993Z,602.00
2024-01-27T04:36:00.024Z,600.00
2024-01-27T04:36:59.994Z,601.00
2024-01-27T04:37:59.986Z,601.00
2024-01-27T04:38:59.998Z,602.00
2024-01-27T04:40:00.617Z,598.00
2024-01-27T04:40:59.977Z,597.00
2024-01-27T04:42:00.034Z,596.00
2024-01-27T04:42:59.985Z,596.00
2024-01-27T04:43:59.999Z,599.00
2024-01-27T04:44:59.996Z,599.00
2024-01-27T04:45:59.977Z,595.00
2024-01-27T04:46:59.959Z,594.00
2024-01-27T04:48:00.091Z,594.00
2024-01-27T04:49:00.079Z,593.00
2024-01-27T04:49:59.970Z,593.00
2024-01-27T04:50:59.957Z,596.00
2024-01-27T04:51:59.930Z,598.00
2024-01-27T04:52:59.956Z,597.00
2024-01-27T04:54:00.020Z,596.00
2024-01-27T04:54:59.936Z,597.00
2024-01-27T04:55:59.943Z,599.00
2024-01-27T04:56:59.976Z,598.00
2024-01-27T04:57:59.908Z,598.00
2024-01-27T04:58:59.914Z,599.00
2024-01-27T04:59:59.935Z,599.00
2024-01-27T05:00:59.920Z,600.00
2024-01-27T05:01:59.883Z,599.00
2024-01-27T05:02:59.964Z,597.00
2024-01-27T05:04:00.052Z,600.00
2024-01-27T05:04:59.979Z,600.00
2024-01-27T05:06:00.089Z,599.00
2024-01-27T05:07:00.232Z,597.00
2024-01-27T05:08:00.097Z,598.00
2024-01-27T05:09:00.103Z,599.00
2024-01-27T05:10:00.172Z,600.00
2024-01-27T05:11:00.171Z,598.00
2024-01-27T05:12:00.248Z,597.00
2024-01-27T05:13:00.259Z,598.00
2024-01-27T05:14:00.240Z,600.00
2024-01-27T05:15:00.423Z,601.00
2024-01-27T05:16:00.224Z,600.00
2024-01-27T05:17:00.211Z,598.00
2024-01-27T05:18:00.414Z,599.00
2024-01-27T05:19:00.278Z,598.00
2024-01-27T05:20:00.288Z,596.00
2024-01-27T05:21:00.220Z,597.00
2024-01-27T05:22:00.189Z,598.00
2024-01-27T05:23:00.187Z,599.00
2024-01-27T05:24:00.235Z,602.00
2024-01-27T05:25:00.182Z,598.00
2024-01-27T05:26:00.184Z,596.00
2024-01-27T05:27:00.274Z,595.00
2024-01-27T05:28:00.165Z,597.00
2024-01-27T05:29:00.157Z,597.00
2024-01-27T05:30:00.272Z,601.00
2024-01-27T05:31:00.240Z,606.00
2024-01-27T05:32:00.273Z,607.00
2024-01-27T05:33:00.533Z,604.00
2024-01-27T05:34:00.546Z,598.00
2024-01-27T05:35:00.658Z,597.00
2024-01-27T05:36:00.408Z,597.00
2024-01-27T05:37:00.458Z,596.00
2024-01-27T05:38:00.469Z,595.00
2024-01-27T05:39:00.539Z,597.00
2024-01-27T05:40:00.597Z,597.00
2024-01-27T05:41:00.574Z,599.00
2024-01-27T05:42:00.657Z,600.00
2024-01-27T05:43:00.637Z,599.00
2024-01-27T05:44:00.661Z,597.00
2024-01-27T05:45:00.774Z,597.00
2024-01-27T05:46:00.736Z,595.00
2024-01-27T05:47:00.745Z,596.00
2024-01-27T05:48:00.857Z,595.00
2024-01-27T05:49:00.930Z,597.00
2024-01-27T05:50:00.745Z,599.00
2024-01-27T05:51:00.828Z,600.00
2024-01-27T05:52:00.748Z,604.00
2024-01-27T05:53:00.761Z,602.00
2024-01-27T05:54:00.796Z,601.00
2024-01-27T05:55:00.751Z,600.00
2024-01-27T05:56:00.751Z,600.00
2024-01-27T05:57:00.772Z,599.00
2024-01-27T05:58:00.773Z,599.00
2024-01-27T05:59:00.753Z,600.00
2024-01-27T06:00:00.806Z,597.00
2024-01-27T06:01:00.793Z,598.00
2024-01-27T06:02:00.787Z,599.00
2024-01-27T06:03:00.860Z,599.00
2024-01-27T06:04:00.893Z,600.00
2024-01-27T06:05:00.770Z,601.00
2024-01-27T06:06:00.841Z,601.00
2024-01-27T06:07:00.859Z,601.00
2024-01-27T06:08:00.758Z,600.00
2024-01-27T06:09:00.816Z,599.00
2024-01-27T06:10:00.774Z,599.00
2024-01-27T06:11:00.777Z,597.00
2024-01-27T06:12:00.788Z,598.00
2024-01-27T06:13:00.778Z,602.00
2024-01-27T06:14:00.790Z,606.00
2024-01-27T06:15:00.894Z,606.00
2024-01-27T06:16:00.792Z,604.00
2024-01-27T06:17:00.788Z,603.00
2024-01-27T06:18:01.022Z,602.00
2024-01-27T06:19:00.917Z,604.00
2024-01-27T06:20:01.092Z,603.00
2024-01-27T06:21:00.893Z,600.00
2024-01-27T06:22:03.585Z,598.00
2024-01-27T06:23:00.786Z,598.00
2024-01-27T06:24:00.834Z,599.00
2024-01-27T06:25:00.786Z,600.00
2024-01-27T06:26:00.789Z,596.00
2024-01-27T06:27:00.822Z,595.00
2024-01-27T06:28:00.766Z,590.00
2024-01-27T06:29:00.764Z,592.00
2024-01-27T06:30:00.821Z,593.00
2024-01-27T06:31:00.772Z,596.00
2024-01-27T06:32:00.764Z,593.00
2024-01-27T06:33:00.943Z,591.00
2024-01-27T06:34:00.792Z,590.00
2024-01-27T06:35:00.826Z,591.00
2024-01-27T06:36:00.865Z,590.00
2024-01-27T06:37:00.770Z,589.00
2024-01-27T06:38:00.756Z,591.00
2024-01-27T06:39:00.771Z,590.00
2024-01-27T06:40:00.766Z,590.00
2024-01-27T06:41:00.771Z,591.00
2024-01-27T06:42:00.845Z,588.00
2024-01-27T06:43:02.940Z,588.00
2024-01-27T06:44:00.850Z,586.00
2024-01-27T06:45:00.942Z,587.00
2024-01-27T06:46:00.851Z,589.00
2024-01-27T06:47:00.853Z,591.00
2024-01-27T06:48:00.980Z,589.00
2024-01-27T06:49:00.982Z,587.00
2024-01-27T06:50:00.905Z,587.00
2024-01-27T06:51:00.928Z,585.00
2024-01-27T06:52:00.864Z,586.00
2024-01-27T06:53:00.870Z,588.00
2024-01-27T06:54:00.890Z,587.00
2024-01-27T06:55:00.894Z,590.00
2024-01-27T06:56:00.866Z,591.00
2024-01-27T06:57:00.887Z,591.00
2024-01-27T06:58:00.891Z,594.00
2024-01-27T06:59:00.864Z,599.00
2024-01-27T07:00:00.914Z,602.00
2024-01-27T07:01:00.919Z,600.00
2024-01-27T07:02:00.886Z,597.00
2024-01-27T07:03:00.916Z,594.00
2024-01-27T07:04:01.024Z,592.00
2024-01-27T07:05:00.912Z,591.00
2024-01-27T07:06:00.920Z,593.00
2024-01-27T07:07:00.917Z,589.00
2024-01-27T07:08:00.892Z,593.00
2024-01-27T07:09:00.931Z,592.00
2024-01-27T07:10:00.887Z,589.00
2024-01-27T07:11:00.881Z,584.00
2024-01-27T07:12:01.011Z,583.00
2024-01-27T07:13:00.882Z,581.00
2024-01-27T07:14:00.906Z,577.00
2024-01-27T07:15:01.036Z,580.00
2024-01-27T07:16:00.910Z,578.00
2024-01-27T07:17:00.887Z,580.00
2024-01-27T07:18:00.977Z,577.00
2024-01-27T07:19:00.973Z,577.00
2024-01-27T07:20:00.974Z,578.00
2024-01-27T07:21:00.947Z,579.00
2024-01-27T07:22:00.971Z,576.00
2024-01-27T07:23:00.896Z,576.00
2024-01-27T07:24:00.990Z,579.00
2024-01-27T07:25:00.900Z,582.00
2024-01-27T07:26:00.897Z,586.00
2024-01-27T07:27:00.980Z,582.00
2024-01-27T07:28:00.906Z,581.00
2024-01-27T07:29:00.944Z,583.00
2024-01-27T07:30:00.949Z,582.00
2024-01-27T07:31:00.891Z,583.00
2024-01-27T07:32:00.893Z,584.00
2024-01-27T07:33:01.009Z,583.00
2024-01-27T07:34:00.998Z,584.00
2024-01-27T07:35:01.033Z,582.00
2024-01-27T07:36:00.971Z,577.00
2024-01-27T07:37:00.991Z,578.00
2024-01-27T07:38:01.020Z,578.00
2024-01-27T07:39:01.106Z,578.00
2024-01-27T07:40:01.131Z,579.00
2024-01-27T07:41:01.125Z,580.00
2024-01-27T07:42:01.228Z,581.00
2024-01-27T07:43:01.193Z,579.00
2024-01-27T07:44:01.230Z,582.00
2024-01-27T07:45:01.437Z,580.00
2024-01-27T07:46:01.298Z,579.00
2024-01-27T07:47:01.337Z,580.00
2024-01-27T07:48:02.365Z,578.00
2024-01-27T07:49:01.467Z,575.00
2024-01-27T07:50:01.495Z,578.00
2024-01-27T07:51:01.518Z,580.00
2024-01-27T07:52:01.520Z,578.00
2024-01-27T07:53:01.539Z,578.00
2024-01-27T07:54:01.619Z,577.00
2024-01-27T07:55:01.601Z,577.00
2024-01-27T07:56:02.002Z,577.00
2024-01-27T07:57:01.766Z,575.00
2024-01-27T07:58:01.649Z,577.00
2024-01-27T07:59:01.651Z,577.00
2024-01-27T08:00:01.735Z,577.00
2024-01-27T08:01:01.700Z,575.00
2024-01-27T08:02:01.639Z,575.00
2024-01-27T08:03:01.667Z,573.00
2024-01-27T08:04:01.773Z,571.00
2024-01-27T08:05:01.658Z,571.00
2024-01-27T08:06:01.691Z,574.00
2024-01-27T08:07:01.684Z,575.00
2024-01-27T08:08:01.645Z,574.00
2024-01-27T08:09:01.657Z,573.00
2024-01-27T08:12:01.661Z,572.00
2024-01-27T08:13:01.597Z,574.00
2024-01-27T08:14:01.614Z,571.00
2024-01-27T08:15:01.692Z,568.00
2024-01-27T08:16:01.588Z,568.00
2024-01-27T08:17:01.614Z,571.00
2024-01-27T08:18:01.735Z,574.00
2024-01-27T08:19:01.789Z,571.00
2024-01-27T08:20:01.663Z,570.00
2024-01-27T08:21:01.611Z,572.00
2024-01-27T08:22:01.579Z,571.00
2024-01-27T08:23:04.053Z,569.00
2024-01-27T08:24:01.667Z,568.00
2024-01-27T08:25:01.577Z,570.00
2024-01-27T08:26:01.569Z,571.00
2024-01-27T08:27:01.610Z,573.00
2024-01-27T08:28:01.588Z,571.00
2024-01-27T08:29:01.599Z,573.00
2024-01-27T08:30:01.624Z,574.00
2024-01-27T08:31:01.555Z,573.00
2024-01-27T08:32:01.597Z,567.00
2024-01-27T08:33:01.788Z,567.00
2024-01-27T08:34:01.652Z,566.00
2024-01-27T08:35:01.629Z,567.00
2024-01-27T08:36:01.591Z,568.00
2024-01-27T08:37:01.552Z,569.00
2024-01-27T08:38:01.560Z,569.00
2024-01-27T08:39:01.573Z,570.00
2024-01-27T08:40:01.557Z,572.00
2024-01-27T08:41:01.538Z,571.00
2024-01-27T08:42:01.545Z,573.00
2024-01-27T08:43:01.535Z,576.00
2024-01-27T08:44:01.518Z,575.00
2024-01-27T08:45:01.580Z,575.00
2024-01-27T08:46:01.523Z,576.00
2024-01-27T08:47:02.880Z,574.00
2024-01-27T08:48:01.570Z,572.00
2024-01-27T08:49:01.672Z,572.00
2024-01-27T08:50:01.551Z,572.00
2024-01-27T08:51:01.552Z,572.00
2024-01-27T08:52:01.489Z,571.00
2024-01-27T08:53:01.507Z,572.00
2024-01-27T08:54:01.565Z,574.00
2024-01-27T08:55:01.544Z,572.00
2024-01-27T08:56:01.570Z,569.00
2024-01-27T08:57:01.657Z,569.00
2024-01-27T08:58:01.641Z,570.00
2024-01-27T08:59:01.660Z,568.00
2024-01-27T09:00:01.737Z,566.00
2024-01-27T09:01:01.793Z,567.00
2024-01-27T09:02:01.727Z,564.00
2024-01-27T09:03:01.808Z,566.00
2024-01-27T09:04:01.840Z,566.00
2024-01-27T09:05:01.901Z,569.00
2024-01-27T09:06:01.917Z,569.00
2024-01-27T09:07:01.846Z,568.00
2024-01-27T09:08:01.837Z,568.00
2024-01-27T09:09:01.861Z,568.00
2024-01-27T09:10:01.827Z,570.00
2024-01-27T09:11:01.832Z,570.00
2024-01-27T09:12:01.864Z,572.00
2024-01-27T09:13:01.863Z,571.00
2024-01-27T09:14:01.840Z,568.00
2024-01-27T09:15:01.927Z,567.00
2024-01-27T09:16:01.864Z,566.00
2024-01-27T09:17:01.880Z,563.00
2024-01-27T09:18:02.018Z,564.00
2024-01-27T09:19:02.063Z,564.00
2024-01-27T09:20:02.119Z,562.00
2024-01-27T09:21:01.913Z,565.00
2024-01-27T09:22:01.927Z,568.00
2024-01-27T09:23:01.922Z,569.00
2024-01-27T09:24:01.950Z,570.00
2024-01-27T09:25:01.992Z,571.00
2024-01-27T09:26:01.968Z,566.00
2024-01-27T09:27:02.021Z,566.00
2024-01-27T09:28:02.080Z,568.00
2024-01-27T09:29:02.117Z,567.00
2024-01-27T09:30:02.270Z,567.00
2024-01-27T09:31:02.279Z,566.00
2024-01-27T09:32:02.314Z,565.00
2024-01-27T09:33:02.496Z,565.00
2024-01-27T09:34:02.565Z,567.00
2024-01-27T09:35:02.549Z,569.00
2024-01-27T09:36:02.547Z,571.00
2024-01-27T09:37:02.554Z,570.00
2024-01-27T09:38:02.617Z,570.00
2024-01-27T09:39:02.673Z,571.00
2024-01-27T09:40:02.740Z,573.00
2024-01-27T09:41:02.779Z,573.00
2024-01-27T09:42:02.879Z,570.00
2024-01-27T09:43:02.905Z,568.00
2024-01-27T09:44:02.945Z,565.00
2024-01-27T09:45:03.052Z,563.00
2024-01-27T09:46:03.033Z,561.00
2024-01-27T09:47:03.080Z,564.00
2024-01-27T09:48:03.284Z,562.00
2024-01-27T09:49:03.355Z,562.00
2024-01-27T09:50:03.247Z,563.00
2024-01-27T09:51:03.313Z,566.00
2024-01-27T09:52:03.298Z,569.00
2024-01-27T09:53:03.337Z,568.00
2024-01-27T09:54:03.450Z,568.00
2024-01-27T09:55:03.424Z,565.00
2024-01-27T09:56:03.446Z,565.00
2024-01-27T09:57:03.486Z,561.00
2024-01-27T09:58:03.501Z,562.00
2024-01-27T09:59:03.517Z,560.00
2024-01-27T10:00:03.694Z,559.00
2024-01-27T10:01:03.765Z,561.00
2024-01-27T10:02:03.634Z,562.00
2024-01-27T10:03:03.697Z,565.00
2024-01-27T10:04:03.721Z,565.00
2024-01-27T10:05:03.701Z,565.00
2024-01-27T10:06:03.824Z,565.00
2024-01-27T10:07:03.837Z,565.00
2024-01-27T10:08:03.789Z,563.00
2024-01-27T10:09:03.906Z,565.00
2024-01-27T10:10:03.903Z,564.00
2024-01-27T10:11:03.834Z,560.00
2024-01-27T10:12:03.897Z,560.00
2024-01-27T10:13:03.832Z,560.00
2024-01-27T10:14:03.806Z,559.00
2024-01-27T10:15:03.857Z,559.00
2024-01-27T10:16:03.826Z,563.00
2024-01-27T10:17:03.787Z,563.00
2024-01-27T10:18:03.830Z,562.00
2024-01-27T10:19:04.276Z,564.00
2024-01-27T10:20:03.912Z,564.00
2024-01-27T10:21:03.902Z,560.00
2024-01-27T10:22:03.754Z,557.00
2024-01-27T10:23:03.755Z,556.00
2024-01-27T10:24:03.820Z,560.00
2024-01-27T10:25:03.751Z,559.00
2024-01-27T10:26:03.748Z,561.00
2024-01-27T10:27:03.786Z,561.00
2024-01-27T10:28:03.730Z,561.00
2024-01-27T10:29:03.730Z,562.00
2024-01-27T10:30:03.778Z,557.00
2024-01-27T10:31:03.717Z,556.00
2024-01-27T10:32:03.942Z,557.00
2024-01-27T10:33:03.801Z,558.00
2024-01-27T10:34:03.871Z,559.00
2024-01-27T10:35:03.833Z,559.00
2024-01-27T10:36:03.932Z,559.00
2024-01-27T10:37:03.857Z,558.00
2024-01-27T10:38:03.852Z,554.00
2024-01-27T10:39:03.856Z,552.00
2024-01-27T10:40:03.868Z,553.00
2024-01-27T10:41:03.821Z,552.00
2024-01-27T10:42:03.925Z,552.00
2024-01-27T10:43:03.912Z,555.00
2024-01-27T10:44:03.832Z,555.00
2024-01-27T10:45:03.896Z,557.00
2024-01-27T10:46:03.876Z,556.00
2024-01-27T10:47:03.910Z,559.00
2024-01-27T10:48:04.108Z,558.00
2024-01-27T10:49:04.028Z,561.00
2024-01-27T10:50:03.969Z,563.00
2024-01-27T10:51:04.004Z,561.00
2024-01-27T10:52:03.968Z,564.00
2024-01-27T10:53:03.953Z,562.00
2024-01-27T10:54:04.050Z,559.00
2024-01-27T10:55:03.949Z,558.00
2024-01-27T10:56:03.926Z,555.00
2024-01-27T10:57:04.041Z,553.00
2024-01-27T10:58:03.916Z,555.00
2024-01-27T10:59:03.938Z,556.00
2024-01-27T11:00:03.933Z,557.00
2024-01-27T11:01:03.987Z,558.00
2024-01-27T11:02:03.887Z,559.00
2024-01-27T11:03:04.083Z,560.00
2024-01-27T11:04:03.967Z,561.00
2024-01-27T11:05:03.919Z,559.00
2024-01-27T11:06:03.849Z,561.00
2024-01-27T11:07:03.850Z,562.00
2024-01-27T11:08:03.833Z,562.00
2024-01-27T11:09:03.830Z,563.00
2024-01-27T11:10:03.825Z,563.00
2024-01-27T11:11:03.784Z,566.00
2024-01-27T11:12:03.775Z,566.00
2024-01-27T11:13:03.754Z,569.00
2024-01-27T11:14:03.754Z,570.00
2024-01-27T11:15:03.743Z,571.00
2024-01-27T11:16:03.666Z,571.00
2024-01-27T11:17:03.637Z,568.00
2024-01-27T11:18:03.687Z,567.00
2024-01-27T11:19:03.643Z,567.00
2024-01-27T11:20:03.728Z,573.00
2024-01-27T11:21:03.608Z,573.00
2024-01-27T11:22:03.570Z,572.00
2024-01-27T11:23:03.567Z,572.00
2024-01-27T11:24:03.598Z,570.00
2024-01-27T11:25:03.557Z,568.00
2024-01-27T11:26:03.528Z,570.00
2024-01-27T11:27:03.658Z,570.00
2024-01-27T11:28:03.547Z,570.00
2024-01-27T11:29:03.591Z,568.00
2024-01-27T11:30:03.640Z,569.00
2024-01-27T11:31:03.661Z,571.00
2024-01-27T11:32:03.674Z,571.00
2024-01-27T11:33:03.740Z,572.00
2024-01-27T11:34:03.785Z,574.00
2024-01-27T11:35:03.748Z,574.00
2024-01-27T11:36:03.579Z,576.00
2024-01-27T11:37:03.496Z,574.00
2024-01-27T11:38:03.455Z,575.00
2024-01-27T11:39:03.525Z,577.00
2024-01-27T11:40:03.386Z,577.00
2024-01-27T11:41:03.438Z,582.00
2024-01-27T11:42:03.365Z,582.00
2024-01-27T11:43:05.899Z,585.00
2024-01-27T11:44:03.499Z,584.00
2024-01-27T11:45:03.290Z,583.00
2024-01-27T11:46:03.194Z,579.00
2024-01-27T11:47:03.156Z,577.00
2024-01-27T11:48:03.302Z,578.00
2024-01-27T11:49:03.166Z,576.00
2024-01-27T11:50:03.164Z,575.00
2024-01-27T11:51:03.069Z,575.00
2024-01-27T11:52:02.974Z,576.00
2024-01-27T11:53:02.937Z,572.00
2024-01-27T11:54:02.938Z,573.00
2024-01-27T11:55:02.873Z,570.00
2024-01-27T11:56:02.878Z,569.00
2024-01-27T11:57:02.851Z,566.00
2024-01-27T11:58:02.771Z,565.00
2024-01-27T11:59:02.733Z,564.00
2024-01-27T12:00:02.868Z,568.00
2024-01-27T12:01:02.709Z,567.00
2024-01-27T12:02:02.632Z,567.00
2024-01-27T12:03:02.688Z,570.00
2024-01-27T12:04:02.579Z,570.00
2024-01-27T12:05:02.584Z,572.00
2024-01-27T12:06:02.600Z,571.00
2024-01-27T12:07:02.618Z,574.00
2024-01-27T12:08:02.460Z,574.00
2024-01-27T12:09:02.476Z,577.00
2024-01-27T12:10:02.371Z,579.00
2024-01-27T12:11:02.369Z,578.00
2024-01-27T12:12:02.328Z,577.00
2024-01-27T12:13:02.290Z,576.00
2024-01-27T12:14:02.219Z,576.00
2024-01-27T12:15:02.227Z,577.00
2024-01-27T12:16:02.162Z,575.00
2024-01-27T12:17:02.124Z,573.00
2024-01-27T12:18:02.347Z,572.00
2024-01-27T12:19:02.105Z,571.00
2024-01-27T12:20:02.184Z,579.00
2024-01-27T12:21:02.003Z,575.00
2024-01-27T12:22:01.950Z,572.00
2024-01-27T12:23:01.928Z,567.00
2024-01-27T12:24:02.123Z,566.00
2024-01-27T12:25:01.867Z,569.00
2024-01-27T12:26:01.879Z,567.00
2024-01-27T12:27:01.870Z,568.00
2024-01-27T12:28:01.801Z,569.00
2024-01-27T12:29:01.798Z,570.00
2024-01-27T12:30:01.811Z,568.00
2024-01-27T12:31:01.740Z,569.00